Decoded Metar for LDRI (RIJEKA in CROATIA) (IATA:RJK) | Meteo·Mobile Aviation Weather
aviador You're here:

LDRI Decoded Metar

RIJEKA in CROATIA
Report Time2019-03-21 15:00:00
UTC Time2019-03-21 15:32:26
Flight Rules vfr VFR
Wind040° at 11 kt
W.Decomp.*RWY 32: 2.5 kt HW 10.7 kt RCW
W.Rank040° ranks 12
Current wind is above 040° avg. (9.9)
Visibility9999 m
Phenomena:N/A
Clouds:N/A
Expected CloudBase > 7,200 ft AGL from Temp-Dew spread
CeilingNone
Temp16°C (ISA +2)
Dew Point-2°C (29% RH)
AAT9.8°C
QNH1029 hPa
Density Alt3 ft
Elevation279 ft
Report Wrong Elevation
Raw Report
LDRI 211500Z 04011KT 350V080 CAVOK 16/M02 Q1029=

Extra information for LDRI:More info

Metar Taf Metar & Taf Last 4 Metars F.Rules Stats Wind Profile Meteogram Temp Stats Airport Information Weather charts Add Link Nearby VenuesMetar ALERT Operation Metar Decoded Social comments